createdAt,value
2023-05-11T00:01:07.592Z,34.67
2023-05-11T00:03:36.464Z,34.40
2023-05-11T00:06:06.440Z,36.00
2023-05-11T00:08:34.889Z,32.07
2023-05-11T00:11:03.342Z,35.47
2023-05-11T00:13:32.436Z,35.57
2023-05-11T00:16:01.301Z,36.00
2023-05-11T00:18:29.799Z,37.70
2023-05-11T00:20:58.505Z,39.00
2023-05-11T00:23:28.898Z,38.13
2023-05-11T00:25:58.195Z,40.80
2023-05-11T00:28:29.815Z,42.10
2023-05-11T00:30:58.922Z,45.73
2023-05-11T00:33:28.345Z,44.03
2023-05-11T00:35:57.214Z,44.53
2023-05-11T00:38:25.858Z,42.43
2023-05-11T00:40:55.694Z,45.80
2023-05-11T00:43:24.427Z,44.73
2023-05-11T00:45:53.642Z,47.77
2023-05-11T00:48:22.229Z,46.33
2023-05-11T00:50:51.277Z,44.77
2023-05-11T00:53:20.100Z,45.37
2023-05-11T00:55:48.860Z,45.83
2023-05-11T00:58:19.133Z,46.47
2023-05-11T01:00:48.223Z,44.40
2023-05-11T01:03:17.853Z,47.83
2023-05-11T01:05:50.648Z,47.47
2023-05-11T01:08:23.519Z,45.87
2023-05-11T01:11:00.050Z,46.33
2023-05-11T01:13:35.287Z,45.17
2023-05-11T01:16:10.153Z,46.77
2023-05-11T01:18:44.725Z,46.27
2023-05-11T01:21:16.802Z,46.40
2023-05-11T01:24:13.475Z,47.63
2023-05-11T01:27:00.790Z,47.97
2023-05-11T01:30:00.458Z,50.93
2023-05-11T01:32:36.544Z,50.93
2023-05-11T01:35:09.857Z,47.27
2023-05-11T01:37:40.272Z,50.43
2023-05-11T01:40:15.286Z,53.63
2023-05-11T01:42:48.812Z,50.60
2023-05-11T01:45:19.054Z,51.43
2023-05-11T01:47:52.168Z,52.57
2023-05-11T01:50:23.183Z,55.83
2023-05-11T01:52:52.949Z,56.47
2023-05-11T01:55:22.978Z,52.20
2023-05-11T01:57:54.851Z,52.43
2023-05-11T02:00:25.092Z,51.03
2023-05-11T02:02:58.008Z,49.23
2023-05-11T02:05:28.352Z,50.27
2023-05-11T02:07:59.482Z,47.70
2023-05-11T02:10:29.464Z,50.53
2023-05-11T02:12:59.755Z,53.83
2023-05-11T02:15:29.685Z,50.63
2023-05-11T02:18:00.408Z,54.07
2023-05-11T02:20:29.022Z,53.57
2023-05-11T02:22:59.330Z,54.90
2023-05-11T02:25:28.690Z,54.17
2023-05-11T02:27:57.228Z,54.87
2023-05-11T02:30:28.572Z,52.27
2023-05-11T02:33:00.432Z,50.03
2023-05-11T02:35:31.625Z,53.93
2023-05-11T02:38:04.036Z,56.10
2023-05-11T02:40:35.047Z,53.33
2023-05-11T02:43:08.829Z,49.57
2023-05-11T02:45:38.660Z,50.77
2023-05-11T02:48:11.075Z,49.23
2023-05-11T02:50:42.201Z,51.50
2023-05-11T02:53:16.583Z,50.97
2023-05-11T02:55:45.150Z,50.93
2023-05-11T02:58:15.696Z,48.13
2023-05-11T03:00:44.330Z,48.70
2023-05-11T03:03:15.209Z,48.83
2023-05-11T03:05:43.866Z,52.97
2023-05-11T03:08:12.770Z,51.40
2023-05-11T03:10:42.895Z,50.10
2023-05-11T03:13:12.129Z,51.90
2023-05-11T03:15:41.169Z,53.53
2023-05-11T03:18:10.821Z,49.97
2023-05-11T03:20:43.004Z,54.63
2023-05-11T03:23:15.936Z,52.77
2023-05-11T03:25:44.983Z,53.07
2023-05-11T03:28:15.403Z,54.77
2023-05-11T03:30:47.335Z,58.17
2023-05-11T03:33:15.967Z,53.17
2023-05-11T03:35:47.882Z,53.40
2023-05-11T03:38:18.132Z,53.60
2023-05-11T03:40:47.532Z,50.80
2023-05-11T03:43:19.296Z,51.30
2023-05-11T03:45:49.387Z,50.17
2023-05-11T03:48:18.243Z,48.80
2023-05-11T03:50:48.944Z,29.97
2023-05-11T03:53:18.036Z,28.27
2023-05-11T03:55:46.783Z,25.93
2023-05-11T03:58:16.330Z,24.87
2023-05-11T04:00:44.899Z,23.67
2023-05-11T04:03:14.950Z,23.77
2023-05-11T04:05:43.899Z,22.97
2023-05-11T04:08:15.094Z,24.93
2023-05-11T04:10:43.541Z,23.23
2023-05-11T04:13:12.023Z,24.60
2023-05-11T04:15:40.404Z,24.47
2023-05-11T04:18:08.958Z,24.80
2023-05-11T04:20:37.764Z,23.77
2023-05-11T04:23:06.964Z,24.83
2023-05-11T04:25:37.878Z,24.47
2023-05-11T04:28:06.857Z,27.20
2023-05-11T04:30:39.478Z,24.17
2023-05-11T04:33:08.489Z,26.37
2023-05-11T04:35:41.174Z,26.40
2023-05-11T04:38:10.067Z,25.47
2023-05-11T04:40:39.984Z,25.20
2023-05-11T04:43:08.515Z,24.83
2023-05-11T04:45:37.090Z,25.57
2023-05-11T04:48:06.663Z,25.57
2023-05-11T04:50:35.661Z,23.97
2023-05-11T04:53:04.517Z,25.67
2023-05-11T04:55:33.376Z,25.97
2023-05-11T04:58:03.332Z,27.17
2023-05-11T05:00:32.596Z,24.00
2023-05-11T05:03:01.481Z,25.77
2023-05-11T05:05:30.304Z,25.60
2023-05-11T05:07:58.816Z,28.60
2023-05-11T05:10:27.531Z,26.87
2023-05-11T05:12:58.221Z,26.17
2023-05-11T05:15:28.426Z,26.53
2023-05-11T05:17:57.383Z,27.00
2023-05-11T05:20:26.517Z,24.30
2023-05-11T05:23:00.339Z,24.70
2023-05-11T05:25:31.872Z,25.13
2023-05-11T05:28:04.548Z,22.87
2023-05-11T05:30:36.465Z,21.20
2023-05-11T05:33:05.395Z,19.40
2023-05-11T05:35:36.961Z,20.03
2023-05-11T05:38:05.651Z,20.10
2023-05-11T05:40:37.638Z,17.43
2023-05-11T05:43:06.770Z,16.77
2023-05-11T05:45:37.111Z,16.37
2023-05-11T05:48:07.338Z,15.87
2023-05-11T05:50:37.026Z,14.00
2023-05-11T05:53:05.524Z,15.90
2023-05-11T05:55:35.009Z,15.50
2023-05-11T05:58:03.415Z,14.57
2023-05-11T06:00:32.416Z,15.03
2023-05-11T06:03:02.865Z,14.67
2023-05-11T06:05:32.176Z,15.77
2023-05-11T06:08:10.093Z,15.27
2023-05-11T06:10:40.466Z,15.10
2023-05-11T06:13:09.712Z,15.20
2023-05-11T06:15:41.073Z,15.20
2023-05-11T06:18:13.941Z,17.00
2023-05-11T06:20:43.708Z,16.43
2023-05-11T06:23:12.385Z,16.60
2023-05-11T06:25:43.242Z,17.77
2023-05-11T06:28:11.991Z,16.07
2023-05-11T06:30:40.971Z,17.70
2023-05-11T06:33:09.632Z,18.23
2023-05-11T06:35:40.287Z,15.80
2023-05-11T06:38:09.402Z,16.10
2023-05-11T06:40:38.829Z,17.03
2023-05-11T06:43:08.314Z,16.50
2023-05-11T06:45:37.329Z,16.93
2023-05-11T06:48:07.160Z,18.27
2023-05-11T06:50:36.195Z,19.27
2023-05-11T06:53:07.006Z,18.57
2023-05-11T06:55:38.385Z,17.73
2023-05-11T06:58:07.346Z,16.27
2023-05-11T07:00:40.621Z,18.23
2023-05-11T07:03:11.396Z,18.50
2023-05-11T07:05:42.478Z,16.40
2023-05-11T07:08:16.553Z,17.10
2023-05-11T07:10:48.359Z,16.70
2023-05-11T07:13:24.259Z,17.43
2023-05-11T07:15:55.919Z,16.33
2023-05-11T07:18:27.495Z,16.57
2023-05-11T07:21:00.035Z,15.87
2023-05-11T07:23:35.850Z,15.70
2023-05-11T07:26:09.609Z,14.37
2023-05-11T07:28:46.007Z,16.23
2023-05-11T07:31:15.975Z,14.47
2023-05-11T07:33:49.807Z,15.63
2023-05-11T07:36:19.387Z,14.27
2023-05-11T07:38:52.115Z,14.00
2023-05-11T07:41:31.360Z,14.97
2023-05-11T07:44:03.460Z,13.63
2023-05-11T07:46:33.680Z,14.03
2023-05-11T07:49:17.351Z,14.30
2023-05-11T07:51:50.822Z,13.17
2023-05-11T07:54:26.809Z,14.63
2023-05-11T07:56:55.966Z,13.50
2023-05-11T07:59:24.548Z,14.13
2023-05-11T08:01:55.230Z,14.20
2023-05-11T08:04:26.033Z,14.00
2023-05-11T08:06:55.247Z,14.33
2023-05-11T08:09:25.793Z,12.77
2023-05-11T08:11:56.841Z,11.63
2023-05-11T08:14:27.716Z,10.63
2023-05-11T08:16:56.968Z,12.40
2023-05-11T08:19:25.720Z,12.87
2023-05-11T08:21:58.767Z,12.57
2023-05-11T08:24:30.124Z,13.80
2023-05-11T08:27:01.927Z,13.17
2023-05-11T08:29:36.906Z,11.30
2023-05-11T08:32:08.831Z,10.17
2023-05-11T08:34:39.857Z,10.27
2023-05-11T08:37:10.374Z,9.13
2023-05-11T08:39:46.598Z,10.40
2023-05-11T08:42:19.114Z,9.30
2023-05-11T08:44:50.839Z,6.73
2023-05-11T08:47:23.612Z,6.60
2023-05-11T08:49:56.361Z,6.57
2023-05-11T08:52:28.270Z,5.13
2023-05-11T08:55:01.512Z,6.23
2023-05-11T08:57:33.230Z,6.60
2023-05-11T09:00:05.179Z,6.13
2023-05-11T09:02:37.679Z,8.37
2023-05-11T09:05:08.746Z,7.60
2023-05-11T09:07:49.285Z,7.53
2023-05-11T09:10:20.436Z,8.07
2023-05-11T09:12:52.460Z,7.77
2023-05-11T09:15:22.174Z,7.80
2023-05-11T09:17:53.221Z,7.40
2023-05-11T09:20:34.434Z,7.07
2023-05-11T09:23:07.476Z,6.57
2023-05-11T09:25:41.430Z,6.47
2023-05-11T09:28:25.376Z,6.27
2023-05-11T09:30:58.159Z,5.73
2023-05-11T09:33:29.059Z,5.93
2023-05-11T09:36:05.671Z,6.20
2023-05-11T09:38:36.434Z,7.40
2023-05-11T09:41:12.720Z,7.73
2023-05-11T09:43:47.972Z,6.83
2023-05-11T09:46:27.531Z,7.37
2023-05-11T09:49:01.694Z,7.63
2023-05-11T09:51:34.306Z,6.97
2023-05-11T09:54:22.230Z,6.97
2023-05-11T09:57:15.144Z,6.47
2023-05-11T09:59:44.746Z,7.30
2023-05-11T10:02:27.853Z,6.87
2023-05-11T10:05:04.194Z,7.90
2023-05-11T10:07:41.043Z,6.37
2023-05-11T10:10:15.906Z,6.30
2023-05-11T10:12:48.231Z,6.03
2023-05-11T10:15:22.017Z,5.73
2023-05-11T10:17:58.601Z,5.13
2023-05-11T10:20:30.395Z,5.40
2023-05-11T10:23:04.473Z,5.50
2023-05-11T10:25:39.037Z,6.15
2023-05-11T10:28:12.780Z,5.38
2023-05-11T10:30:44.679Z,5.80
2023-05-11T10:33:15.995Z,6.03
2023-05-11T10:35:54.007Z,6.10
2023-05-11T10:38:40.247Z,5.75
2023-05-11T10:41:32.346Z,5.50
2023-05-11T10:44:42.176Z,6.00
2023-05-11T10:47:59.783Z,5.57
2023-05-11T10:50:51.418Z,6.60
2023-05-11T10:54:00.299Z,7.18
2023-05-11T10:57:05.371Z,7.18
2023-05-11T11:00:20.329Z,6.20
2023-05-11T11:02:55.205Z,4.43
2023-05-11T11:05:39.125Z,4.22
2023-05-11T11:08:15.008Z,4.28
2023-05-11T11:10:59.291Z,4.35
2023-05-11T11:13:32.530Z,3.85
2023-05-11T11:16:48.108Z,4.82
2023-05-11T11:19:42.851Z,4.20
2023-05-11T11:22:50.926Z,5.78
2023-05-11T11:25:55.871Z,4.70
2023-05-11T11:28:26.697Z,4.60
2023-05-11T11:31:29.288Z,3.80
2023-05-11T11:34:07.296Z,3.20
2023-05-11T11:37:06.411Z,3.08
2023-05-11T11:39:58.388Z,3.00
2023-05-11T11:42:42.063Z,3.10
2023-05-11T11:45:37.288Z,3.60
2023-05-11T11:48:17.581Z,3.60
2023-05-11T11:51:03.413Z,3.78
2023-05-11T11:54:04.353Z,3.83
2023-05-11T11:56:46.067Z,4.00
2023-05-11T11:59:22.504Z,3.57
2023-05-11T12:01:56.729Z,3.80
2023-05-11T12:04:59.814Z,4.00
2023-05-11T12:07:40.066Z,3.90
2023-05-11T12:10:15.812Z,4.60
2023-05-11T12:12:52.947Z,4.30
2023-05-11T12:15:28.562Z,3.50
2023-05-11T12:17:58.485Z,3.33
2023-05-11T12:20:33.821Z,3.63
2023-05-11T12:23:04.831Z,2.90
2023-05-11T12:25:34.239Z,3.33
2023-05-11T12:28:03.357Z,3.00
2023-05-11T12:30:34.569Z,2.80
2023-05-11T12:33:04.811Z,3.67
2023-05-11T12:35:43.117Z,3.90
2023-05-11T12:38:14.171Z,3.65
2023-05-11T12:40:51.637Z,3.38
2023-05-11T12:43:22.105Z,3.42
2023-05-11T12:45:53.635Z,3.30
2023-05-11T12:48:30.040Z,3.10
2023-05-11T12:51:09.213Z,2.87
2023-05-11T12:53:46.585Z,2.60
2023-05-11T12:56:18.245Z,2.53
2023-05-11T12:58:47.365Z,2.00
2023-05-11T13:01:19.860Z,2.00
2023-05-11T13:04:05.656Z,2.50
2023-05-11T13:06:48.026Z,2.20
2023-05-11T13:09:26.578Z,1.90
2023-05-11T13:12:21.067Z,2.40
2023-05-11T13:14:52.349Z,2.03
2023-05-11T13:18:01.557Z,2.10
2023-05-11T13:20:32.696Z,3.13
2023-05-11T13:23:12.884Z,4.47
2023-05-11T13:25:56.457Z,4.70
2023-05-11T13:28:29.104Z,4.50
2023-05-11T13:31:08.149Z,3.53
2023-05-11T13:33:37.908Z,3.40
2023-05-11T13:36:15.927Z,3.70
2023-05-11T13:38:53.368Z,4.23
2023-05-11T13:41:44.705Z,5.13
2023-05-11T13:44:15.589Z,4.87
2023-05-11T13:46:46.870Z,6.47
2023-05-11T13:49:23.066Z,7.50
2023-05-11T13:51:58.695Z,8.37
2023-05-11T13:54:32.917Z,6.07
2023-05-11T13:57:09.873Z,5.07
2023-05-11T13:59:43.255Z,5.03
2023-05-11T14:02:25.533Z,5.60
2023-05-11T14:05:11.326Z,5.17
2023-05-11T14:07:49.323Z,5.03
2023-05-11T14:10:23.362Z,5.80
2023-05-11T14:12:58.219Z,7.07
2023-05-11T14:15:30.551Z,6.67
2023-05-11T14:18:04.101Z,6.67
2023-05-11T14:20:45.918Z,6.67
2023-05-11T14:23:23.503Z,7.23
2023-05-11T14:26:00.251Z,6.10
2023-05-11T14:28:42.901Z,4.67
2023-05-11T14:31:31.084Z,5.00
2023-05-11T14:34:00.959Z,6.60
2023-05-11T14:36:57.221Z,6.47
2023-05-11T14:39:33.696Z,7.27
2023-05-11T14:42:14.969Z,7.57
2023-05-11T14:44:46.239Z,6.67
2023-05-11T14:47:29.424Z,7.43
2023-05-11T14:50:11.007Z,7.30
2023-05-11T14:52:53.863Z,6.43
2023-05-11T14:55:32.522Z,6.53
2023-05-11T14:58:10.247Z,6.77
2023-05-11T15:00:44.969Z,5.97
2023-05-11T15:03:17.893Z,5.20
2023-05-11T15:05:54.778Z,5.10
2023-05-11T15:08:30.223Z,4.93
2023-05-11T15:11:02.361Z,4.33
2023-05-11T15:13:37.928Z,4.50
2023-05-11T15:16:08.805Z,4.43
2023-05-11T15:18:43.064Z,4.83
2023-05-11T15:21:15.462Z,4.17
2023-05-11T15:23:45.668Z,5.10
2023-05-11T15:26:18.934Z,4.57
2023-05-11T15:28:57.722Z,4.50
2023-05-11T15:31:32.281Z,4.13
2023-05-11T15:34:25.572Z,5.40
2023-05-11T15:37:08.054Z,4.63
2023-05-11T15:39:42.292Z,6.10
2023-05-11T15:42:13.938Z,5.87
2023-05-11T15:44:50.660Z,5.77
2023-05-11T15:47:31.893Z,6.60
2023-05-11T15:50:08.424Z,6.53
2023-05-11T15:52:40.870Z,6.83
2023-05-11T15:55:16.043Z,8.57
2023-05-11T15:57:53.423Z,8.57
2023-05-11T16:00:33.895Z,8.00
2023-05-11T16:03:06.336Z,10.63
2023-05-11T16:05:46.880Z,9.97
2023-05-11T16:08:22.302Z,9.80
2023-05-11T16:10:58.190Z,11.67
2023-05-11T16:13:32.447Z,10.70
2023-05-11T16:16:12.587Z,10.60
2023-05-11T16:18:47.103Z,12.57
2023-05-11T16:21:20.190Z,12.13
2023-05-11T16:23:53.810Z,12.07
2023-05-11T16:26:33.356Z,11.67
2023-05-11T16:29:09.946Z,12.50
2023-05-11T16:31:47.651Z,10.33
2023-05-11T16:34:32.414Z,9.00
2023-05-11T16:37:02.929Z,8.00
2023-05-11T16:39:33.246Z,6.87
2023-05-11T16:42:12.630Z,6.97
2023-05-11T16:44:46.457Z,6.70
2023-05-11T16:47:19.516Z,6.40
2023-05-11T16:50:09.320Z,6.73
2023-05-11T16:52:46.088Z,7.60
2023-05-11T16:55:21.604Z,6.00
2023-05-11T16:57:56.187Z,6.30
2023-05-11T17:00:37.098Z,6.27
2023-05-11T17:03:14.642Z,6.67
2023-05-11T17:05:50.074Z,6.47
2023-05-11T17:08:30.205Z,7.27
2023-05-11T17:11:08.795Z,6.97
2023-05-11T17:13:49.189Z,8.13
2023-05-11T17:16:26.220Z,7.93
2023-05-11T17:19:05.031Z,7.10
2023-05-11T17:21:46.552Z,4.83
2023-05-11T17:24:21.067Z,5.23
2023-05-11T17:26:59.848Z,5.27
2023-05-11T17:29:32.848Z,5.27
2023-05-11T17:32:03.966Z,5.80
2023-05-11T17:34:45.624Z,5.20
2023-05-11T17:37:31.068Z,6.70
2023-05-11T17:40:14.522Z,6.33
2023-05-11T17:42:46.349Z,6.50
2023-05-11T17:45:27.063Z,7.20
2023-05-11T17:48:05.207Z,6.90
2023-05-11T17:50:45.036Z,7.43
2023-05-11T17:56:30.041Z,7.60
2023-05-11T17:59:04.159Z,8.43
2023-05-11T18:01:39.976Z,8.23
2023-05-11T18:04:20.834Z,9.50
2023-05-11T18:06:57.892Z,9.80
2023-05-11T18:12:23.644Z,9.30
2023-05-11T18:15:06.238Z,9.47
2023-05-11T18:17:39.448Z,10.20
2023-05-11T18:20:21.968Z,10.73
2023-05-11T18:23:03.219Z,9.47
2023-05-11T18:25:33.811Z,9.77
2023-05-11T18:28:13.657Z,10.70
2023-05-11T18:30:43.713Z,10.00
2023-05-11T18:33:25.836Z,9.47
2023-05-11T18:35:57.357Z,11.10
2023-05-11T18:38:35.738Z,10.90
2023-05-11T18:41:10.520Z,10.57
2023-05-11T18:43:55.052Z,10.60
2023-05-11T18:46:38.580Z,11.77
2023-05-11T18:49:17.553Z,11.37
2023-05-11T18:51:53.740Z,12.90
2023-05-11T18:54:29.647Z,13.23
2023-05-11T18:57:12.049Z,11.77
2023-05-11T18:59:47.209Z,14.10
2023-05-11T19:02:32.540Z,12.30
2023-05-11T19:05:05.708Z,13.50
2023-05-11T19:07:37.861Z,14.00
2023-05-11T19:10:31.572Z,12.90
2023-05-11T19:13:05.569Z,13.13
2023-05-11T19:15:39.151Z,12.73
2023-05-11T19:18:23.016Z,13.37
2023-05-11T19:20:58.878Z,14.07
2023-05-11T19:23:31.348Z,13.93
2023-05-11T19:26:13.097Z,14.00
2023-05-11T19:28:45.382Z,14.93
2023-05-11T19:31:18.590Z,14.70
2023-05-11T19:33:50.376Z,15.33
2023-05-11T19:36:23.660Z,14.03
2023-05-11T19:39:00.193Z,16.73
2023-05-11T19:41:36.305Z,14.33
2023-05-11T19:44:14.087Z,15.13
2023-05-11T19:46:47.289Z,15.00
2023-05-11T19:49:28.407Z,16.43
2023-05-11T19:52:08.722Z,17.80
2023-05-11T19:54:45.948Z,17.83
2023-05-11T19:57:26.313Z,17.47
2023-05-11T19:59:56.852Z,18.37
2023-05-11T20:02:40.623Z,19.63
2023-05-11T20:05:15.408Z,18.57
2023-05-11T20:07:47.171Z,20.87
2023-05-11T20:10:29.823Z,21.40
2023-05-11T20:13:18.120Z,19.27
2023-05-11T20:16:04.926Z,17.30
2023-05-11T20:18:36.167Z,18.80
2023-05-11T20:21:11.766Z,19.77
2023-05-11T20:23:46.910Z,19.63
2023-05-11T20:26:25.154Z,18.37
2023-05-11T20:28:57.229Z,18.23
2023-05-11T20:31:40.191Z,18.40
2023-05-11T20:34:22.463Z,18.00
2023-05-11T20:36:58.237Z,20.60
2023-05-11T20:39:34.242Z,21.47
2023-05-11T20:42:15.676Z,19.80
2023-05-11T20:44:57.878Z,20.40
2023-05-11T20:47:36.472Z,24.10
2023-05-11T20:50:13.981Z,24.50
2023-05-11T20:52:46.625Z,25.20
2023-05-11T20:55:21.793Z,27.13
2023-05-11T20:58:14.763Z,28.37
2023-05-11T21:01:00.206Z,28.87
2023-05-11T21:03:32.723Z,28.70
2023-05-11T21:06:10.745Z,28.60
2023-05-11T21:08:45.480Z,29.90
2023-05-11T21:11:20.112Z,25.73
2023-05-11T21:13:53.535Z,27.60
2023-05-11T21:16:31.678Z,30.63
2023-05-11T21:19:03.227Z,29.13
2023-05-11T21:21:37.888Z,30.97
2023-05-11T21:24:11.129Z,29.53
2023-05-11T21:26:40.631Z,33.17
2023-05-11T21:29:17.080Z,30.70
2023-05-11T21:32:00.737Z,30.17
2023-05-11T21:34:47.000Z,33.03
2023-05-11T21:37:20.796Z,31.30
2023-05-11T21:39:55.102Z,31.50
2023-05-11T21:42:25.228Z,32.97
2023-05-11T21:44:58.562Z,30.60
2023-05-11T21:47:32.177Z,31.20
2023-05-11T21:50:04.663Z,30.37
2023-05-11T21:52:42.844Z,30.70
2023-05-11T21:55:13.935Z,32.00
2023-05-11T21:57:49.101Z,30.07
2023-05-11T22:00:20.562Z,31.23
2023-05-11T22:02:52.555Z,31.00
2023-05-11T22:05:21.862Z,29.23
2023-05-11T22:07:53.896Z,30.83
2023-05-11T22:10:25.365Z,29.90
2023-05-11T22:12:57.295Z,28.07
2023-05-11T22:15:28.031Z,27.63
2023-05-11T22:18:05.419Z,30.07
2023-05-11T22:20:34.429Z,27.37
2023-05-11T22:23:08.711Z,25.57
2023-05-11T22:25:38.693Z,25.73
2023-05-11T22:28:11.901Z,25.97
2023-05-11T22:30:44.683Z,26.60
2023-05-11T22:33:17.772Z,24.67
2023-05-11T22:35:46.480Z,25.50
2023-05-11T22:38:18.887Z,24.67
2023-05-11T22:40:47.540Z,23.33
2023-05-11T22:43:19.394Z,21.93
2023-05-11T22:45:48.772Z,22.03
2023-05-11T22:48:19.037Z,22.00
2023-05-11T22:50:48.350Z,22.27
2023-05-11T22:53:19.289Z,21.20
2023-05-11T22:55:48.335Z,20.63
2023-05-11T22:58:17.840Z,18.03
2023-05-11T23:00:46.640Z,19.77
2023-05-11T23:03:15.455Z,18.83
2023-05-11T23:05:45.889Z,17.37
2023-05-11T23:08:14.901Z,18.83
2023-05-11T23:10:47.146Z,19.27
2023-05-11T23:13:16.168Z,20.73
2023-05-11T23:15:44.829Z,21.13
2023-05-11T23:18:13.700Z,21.40
2023-05-11T23:20:42.333Z,23.83
2023-05-11T23:23:13.860Z,22.60
2023-05-11T23:25:46.870Z,24.00
2023-05-11T23:28:16.347Z,25.07
2023-05-11T23:30:46.290Z,26.40
2023-05-11T23:33:14.912Z,26.67
2023-05-11T23:35:43.904Z,26.57
2023-05-11T23:38:13.969Z,26.67
2023-05-11T23:40:43.249Z,27.70
2023-05-11T23:43:13.078Z,30.33
2023-05-11T23:45:42.680Z,29.43
2023-05-11T23:48:11.397Z,30.47
2023-05-11T23:50:39.768Z,31.13
2023-05-11T23:53:08.609Z,35.30
2023-05-11T23:55:42.137Z,35.00
2023-05-11T23:58:11.779Z,36.03
